Time;durP1;ratioP1;P1;durP2;ratioP2;P2;SDS_P1;SDS_P2;PMS_P1;PMS_P2;Temp;Humidity;BMP_temperature;BMP_pressure;BME280_temperature;BME280_humidity;BME280_pressure;Samples;Min_cycle;Max_cycle;Signal;HPM_P1;HPM_P2
2022/04/11 00:02:08;;;;;;;8.55;2.20;;;;;;;7.47;55.96;100532.56;4886086;28;96724;-88
2022/04/11 00:04:34;;;;;;;4.55;2.17;;;;;;;7.37;55.90;100510.13;4886802;28;97072;-88
2022/04/11 00:06:59;;;;;;;3.33;2.15;;;;;;;7.36;56.49;100516.25;4876771;28;98703;-88
2022/04/11 00:09:25;;;;;;;4.40;2.00;;;;;;;7.35;56.48;100530.19;4899109;28;96774;-88
2022/04/11 00:11:51;;;;;;;3.33;2.03;;;;;;;7.33;56.41;100524.16;4880036;28;96793;-88
2022/04/11 00:14:16;;;;;;;3.30;1.92;;;;;;;7.29;56.61;100521.59;4866368;28;96940;-87
2022/04/11 00:16:42;;;;;;;5.47;2.58;;;;;;;7.33;56.43;100520.66;4883454;28;98452;-88
2022/04/11 00:19:08;;;;;;;4.60;2.38;;;;;;;7.19;56.27;100506.09;4883602;28;98059;-88
2022/04/11 00:21:34;;;;;;;7.07;2.30;;;;;;;7.33;56.61;100531.97;4868002;28;96725;-87
2022/04/11 00:24:00;;;;;;;4.95;2.60;;;;;;;7.30;56.45;100533.75;4883791;28;97173;-87
2022/04/11 00:26:26;;;;;;;4.32;2.58;;;;;;;7.29;56.58;100534.66;4882814;28;101728;-89
2022/04/11 00:28:53;;;;;;;5.10;2.70;;;;;;;7.28;56.67;100539.03;4877006;28;101715;-88
2022/04/11 00:31:19;;;;;;;4.03;2.40;;;;;;;7.28;56.78;100539.03;4889877;28;97351;-88
2022/04/11 00:33:44;;;;;;;4.13;2.35;;;;;;;7.23;56.71;100533.00;4883204;28;96811;-88
2022/04/11 00:36:10;;;;;;;4.80;2.78;;;;;;;7.21;57.12;100527.81;4882307;28;102127;-88
2022/04/11 00:38:37;;;;;;;5.28;2.75;;;;;;;7.19;56.82;100521.75;4893059;28;98514;-89
2022/04/11 00:41:02;;;;;;;5.88;2.85;;;;;;;7.22;56.98;100526.06;4883679;28;97082;-87
2022/04/11 00:43:38;;;;;;;5.90;2.80;;;;;;;7.17;56.71;100526.13;4883156;28;97302;-88
2022/04/11 00:46:06;;;;;;;5.18;2.80;;;;;;;7.12;57.04;100517.50;4891756;28;100216;-88
2022/04/11 00:48:32;;;;;;;5.30;2.58;;;;;;;7.21;56.68;100543.50;4880347;28;101850;-89
2022/04/11 00:51:07;;;;;;;4.75;3.03;;;;;;;7.18;56.73;100538.28;4870177;28;97004;-89
2022/04/11 00:53:35;;;;;;;5.77;3.30;;;;;;;7.11;56.59;100547.13;4884358;28;96819;-89
2022/04/11 00:56:01;;;;;;;5.13;2.80;;;;;;;7.09;56.38;100543.66;4891336;28;100296;-87
2022/04/11 00:58:29;;;;;;;4.57;2.75;;;;;;;7.07;56.63;100535.03;4901868;28;100316;-89
2022/04/11 01:00:55;;;;;;;6.53;3.20;;;;;;;7.05;56.64;100542.00;4863859;28;96916;-88
2022/04/11 01:03:21;;;;;;;9.85;2.95;;;;;;;7.02;56.79;100540.31;4871268;28;96655;-89
2022/04/11 01:05:48;;;;;;;4.97;2.65;;;;;;;6.89;56.50;100525.72;4883045;28;99982;-88
2022/04/11 01:08:13;;;;;;;4.80;2.77;;;;;;;6.93;56.95;100545.69;4882466;28;97908;-88
2022/04/11 01:10:41;;;;;;;4.53;2.33;;;;;;;6.69;56.44;100504.28;4881205;28;96722;-89
2022/04/11 01:13:07;;;;;;;5.43;2.43;;;;;;;6.95;56.62;100551.75;4867443;28;96941;-88
2022/04/11 01:15:32;;;;;;;3.93;2.37;;;;;;;6.94;56.57;100552.59;4866441;28;100143;-89
2022/04/11 01:17:58;;;;;;;4.55;2.20;;;;;;;6.93;56.69;100552.66;4895484;28;97963;-89
2022/04/11 01:20:24;;;;;;;6.65;2.38;;;;;;;6.87;56.46;100553.59;4895089;28;97049;-88
2022/04/11 01:22:49;;;;;;;6.53;2.85;;;;;;;6.84;56.34;100553.66;4859688;28;96892;-89
2022/04/11 01:25:19;;;;;;;4.53;2.37;;;;;;;6.91;56.47;100555.28;4874032;28;101507;-88
2022/04/11 01:27:45;;;;;;;5.97;2.27;;;;;;;6.80;56.44;100544.97;4877996;28;100373;-89
2022/04/11 01:30:14;;;;;;;4.50;2.13;;;;;;;6.87;56.20;100558.81;4878552;28;97244;-88
2022/04/11 01:32:45;;;;;;;5.22;2.42;;;;;;;6.84;56.07;100560.63;4879795;28;96881;-87
2022/04/11 01:35:22;;;;;;;4.13;2.10;;;;;;;6.74;56.41;100560.72;4878966;28;98166;-88
2022/04/11 01:37:49;;;;;;;6.03;2.77;;;;;;;6.63;56.61;100533.06;4863961;28;101265;-88
2022/04/11 01:40:16;;;;;;;7.47;2.50;;;;;;;6.75;56.57;100564.22;4877043;28;96865;-88
2022/04/11 01:42:43;;;;;;;3.85;2.05;;;;;;;6.56;56.50;100545.34;4876581;28;97194;-89
2022/04/11 01:45:10;;;;;;;5.55;2.25;;;;;;;6.63;56.41;100541.75;4878539;28;100502;-89
2022/04/11 01:47:39;;;;;;;4.75;2.83;;;;;;;6.74;56.47;100568.56;4895322;28;97840;-89
2022/04/11 01:50:09;;;;;;;3.80;2.13;;;;;;;6.65;56.03;100555.66;4863596;28;97143;-88
2022/04/11 01:52:35;;;;;;;5.80;2.72;;;;;;;6.71;56.15;100576.44;4895220;28;97064;-88
2022/04/11 01:55:02;;;;;;;5.80;2.33;;;;;;;6.41;56.19;100519.50;4878991;28;101616;-89
2022/04/11 01:57:28;;;;;;;3.90;2.40;;;;;;;6.52;56.74;100549.75;4862591;28;100152;-88
2022/04/11 01:59:54;;;;;;;5.33;2.50;;;;;;;6.67;56.04;100573.91;4863633;28;96779;-88
2022/04/11 02:02:20;;;;;;;6.00;2.53;;;;;;;6.68;56.16;100578.22;4882305;28;97117;-89
2022/04/11 02:04:45;;;;;;;5.00;2.63;;;;;;;6.56;56.47;100554.03;4878915;28;101369;-88
2022/04/11 02:07:11;;;;;;;3.40;2.22;;;;;;;6.59;56.39;100576.59;4863308;28;101292;-86
2022/04/11 02:09:37;;;;;;;5.43;2.67;;;;;;;6.50;56.27;100561.09;4863267;28;97104;-88
2022/04/11 02:12:04;;;;;;;3.57;2.53;;;;;;;6.53;56.61;100561.03;4893761;28;97496;-89
2022/04/11 02:14:29;;;;;;;4.20;2.50;;;;;;;6.63;56.47;100585.25;4858800;28;100235;-89
2022/04/11 02:16:55;;;;;;;5.97;2.43;;;;;;;6.60;56.47;100577.47;4879719;28;101492;-88
2022/04/11 02:19:20;;;;;;;6.60;2.70;;;;;;;6.57;56.23;100578.38;4897507;28;97154;-88
2022/04/11 02:21:46;;;;;;;5.63;2.73;;;;;;;6.57;56.18;100576.66;4866071;28;97102;-88
2022/04/11 02:24:12;;;;;;;5.40;2.73;;;;;;;6.47;56.43;100561.13;4881719;28;101820;-87
2022/04/11 02:26:37;;;;;;;5.82;2.55;;;;;;;6.49;56.39;100568.06;4862455;28;101995;-87
2022/04/11 02:29:03;;;;;;;4.30;2.43;;;;;;;6.57;56.48;100586.19;4882189;28;96804;-89
2022/04/11 02:31:29;;;;;;;4.43;2.70;;;;;;;6.43;56.32;100556.81;4870112;28;96848;-88
2022/04/11 02:33:55;;;;;;;4.83;2.53;;;;;;;6.57;56.41;100584.47;4865888;28;100927;-89
2022/04/11 02:36:20;;;;;;;6.63;3.07;;;;;;;6.50;56.96;100581.94;4865692;28;101690;-88
2022/04/11 02:38:46;;;;;;;4.87;3.10;;;;;;;6.34;56.60;100569.13;4882249;28;97139;-89
2022/04/11 02:41:12;;;;;;;4.73;2.50;;;;;;;6.33;57.00;100574.34;4869875;28;97155;-86
2022/04/11 02:43:43;;;;;;;7.28;2.50;;;;;;;6.18;57.36;100575.41;4877309;28;101707;-88
2022/04/11 02:46:10;;;;;;;4.23;2.33;;;;;;;6.34;56.73;100582.16;4881714;28;99792;-89
2022/04/11 02:48:38;;;;;;;4.10;2.67;;;;;;;6.41;57.08;100579.47;4882169;28;97306;-89
2022/04/11 02:51:12;;;;;;;6.73;3.10;;;;;;;6.29;56.95;100557.03;4867269;28;97166;-88
2022/04/11 02:53:51;;;;;;;5.47;2.67;;;;;;;6.45;56.74;100576.78;4873142;28;100658;-88
2022/04/11 02:56:17;;;;;;;5.83;2.90;;;;;;;6.44;57.31;100577.69;4881768;28;101228;-89
2022/04/11 02:58:43;;;;;;;4.57;2.53;;;;;;;6.53;57.05;100584.53;4879398;28;97053;-89
2022/04/11 03:01:09;;;;;;;6.23;2.77;;;;;;;6.48;57.00;100584.56;4884673;28;96984;-89
2022/04/11 03:03:37;;;;;;;4.67;2.50;;;;;;;6.50;57.25;100585.41;4883682;28;101802;-89
2022/04/11 03:06:04;;;;;;;6.60;2.70;;;;;;;6.49;57.15;100568.06;4872179;28;101013;-88
2022/04/11 03:08:30;;;;;;;5.17;2.50;;;;;;;6.41;57.16;100554.25;4886923;28;96842;-89
2022/04/11 03:10:58;;;;;;;6.47;2.40;;;;;;;6.52;57.53;100578.44;4873287;28;97457;-88
2022/04/11 03:13:25;;;;;;;6.97;2.60;;;;;;;6.53;57.72;100569.72;4887398;28;101566;-88
2022/04/11 03:15:51;;;;;;;6.70;2.95;;;;;;;6.52;57.79;100570.63;4891299;28;101151;-88
2022/04/11 03:18:18;;;;;;;5.87;2.60;;;;;;;6.53;57.42;100574.09;4865657;28;96985;-88
2022/04/11 03:20:47;;;;;;;7.40;3.00;;;;;;;6.38;57.55;100556.03;4882730;28;96785;-88
2022/04/11 03:23:15;;;;;;;6.50;2.77;;;;;;;6.48;57.95;100573.28;4880055;28;101246;-88
2022/04/11 03:25:42;;;;;;;5.10;2.63;;;;;;;6.48;58.12;100563.69;4881400;28;101029;-88
2022/04/11 03:28:13;;;;;;;6.40;2.83;;;;;;;6.50;57.99;100581.94;4866505;28;96934;-86
2022/04/11 03:30:39;;;;;;;5.37;2.47;;;;;;;6.50;58.08;100588.03;4881445;28;96926;-89
2022/04/11 03:33:05;;;;;;;5.23;2.63;;;;;;;6.49;58.05;100577.63;4876827;28;100816;-88
2022/04/11 03:35:34;;;;;;;6.10;2.70;;;;;;;6.57;58.37;100596.63;4865951;28;100323;-88
2022/04/11 03:37:59;;;;;;;6.87;2.90;;;;;;;6.57;58.35;100589.69;4862301;28;96732;-88
2022/04/11 03:40:27;;;;;;;5.67;2.87;;;;;;;6.58;58.61;100593.16;4865869;28;96924;-88
2022/04/11 03:42:55;;;;;;;5.77;2.47;;;;;;;6.57;58.19;100581.88;4880950;28;100292;-89
2022/04/11 03:45:21;;;;;;;5.25;2.70;;;;;;;6.58;58.43;100588.78;4880669;28;100434;-89
2022/04/11 03:47:49;;;;;;;6.80;2.50;;;;;;;6.40;58.69;100562.97;4878088;28;96645;-88
2022/04/11 03:50:17;;;;;;;5.67;2.97;;;;;;;6.60;58.68;100587.91;4872901;28;96817;-89
2022/04/11 03:52:44;;;;;;;7.30;2.70;;;;;;;6.58;58.67;100582.72;4871921;28;101381;-87
2022/04/11 03:55:10;;;;;;;6.93;3.00;;;;;;;6.62;58.21;100589.59;4887615;28;98201;-88
2022/04/11 03:57:39;;;;;;;7.03;3.10;;;;;;;6.61;58.75;100585.28;4882849;28;97082;-88
2022/04/11 04:00:06;;;;;;;5.67;3.00;;;;;;;6.57;58.50;100576.66;4865049;28;96902;-89
2022/04/11 04:02:43;;;;;;;8.27;2.87;;;;;;;6.44;58.55;100558.56;4889538;28;97953;-89
2022/04/11 04:05:10;;;;;;;7.70;3.13;;;;;;;6.62;58.58;100596.56;4864999;28;101450;-89
2022/04/11 04:07:37;;;;;;;7.90;3.03;;;;;;;6.64;58.62;100592.22;4862842;28;96768;-88
2022/04/11 04:10:06;;;;;;;6.17;2.83;;;;;;;6.51;58.61;100588.88;4863384;28;97002;-89
2022/04/11 04:12:33;;;;;;;9.17;3.07;;;;;;;6.60;58.76;100601.81;4879515;28;99930;-88
2022/04/11 04:15:12;;;;;;;6.77;3.00;;;;;;;6.64;58.36;100600.91;4867921;28;102004;-89
2022/04/11 04:17:42;;;;;;;9.57;3.00;;;;;;;6.67;58.33;100605.22;4880123;28;97260;-89
2022/04/11 04:20:09;;;;;;;5.80;2.83;;;;;;;6.59;58.37;100600.09;4864840;28;96914;-89
2022/04/11 04:22:35;;;;;;;5.83;2.77;;;;;;;6.55;58.75;100590.59;4879910;28;100474;-89
2022/04/11 04:25:02;;;;;;;6.55;2.70;;;;;;;6.62;58.34;100602.66;4866186;28;100432;-89
2022/04/11 04:27:27;;;;;;;4.93;2.70;;;;;;;6.62;58.10;100610.47;4893259;28;97384;-88
2022/04/11 04:29:54;;;;;;;8.27;3.00;;;;;;;6.66;58.31;100619.13;4873803;28;96943;-89
2022/04/11 04:32:22;;;;;;;5.30;2.53;;;;;;;6.69;58.28;100626.91;4864339;28;100412;-89
2022/04/11 04:34:49;;;;;;;7.90;2.80;;;;;;;6.62;58.37;100617.44;4862478;28;101522;-89
2022/04/11 04:37:15;;;;;;;11.97;2.80;;;;;;;6.57;58.22;100601.84;4893737;28;96785;-89
2022/04/11 04:39:41;;;;;;;6.60;2.87;;;;;;;6.60;58.32;100609.63;4892759;28;96852;-89
2022/04/11 04:42:07;;;;;;;7.60;3.00;;;;;;;6.70;58.31;100626.03;4864082;28;100369;-90
2022/04/11 04:44:33;;;;;;;4.90;2.42;;;;;;;6.73;58.22;100631.22;4863930;28;101265;-88
2022/04/11 04:47:00;;;;;;;6.73;2.60;;;;;;;6.58;58.40;100608.81;4880435;28;96795;-88
2022/04/11 04:49:34;;;;;;;8.43;2.70;;;;;;;6.75;58.33;100639.91;4880677;28;97190;-88
2022/04/11 04:52:02;;;;;;;10.85;2.67;;;;;;;6.62;58.33;100612.22;4864514;28;100353;-89
2022/04/11 04:54:29;;;;;;;8.53;3.27;;;;;;;6.66;57.97;100617.41;4864026;28;100246;-89
2022/04/11 04:56:57;;;;;;;5.23;2.53;;;;;;;6.79;57.86;100641.56;4880410;28;97278;-89
2022/04/11 04:59:27;;;;;;;8.20;2.83;;;;;;;6.78;58.00;100635.50;4880592;28;96757;-89
2022/04/11 05:01:58;;;;;;;11.63;3.08;;;;;;;6.79;58.11;100636.34;4865646;28;101756;-86
2022/04/11 05:04:24;;;;;;;7.43;2.60;;;;;;;6.79;58.14;100645.03;4873711;28;100281;-86
2022/04/11 05:06:52;;;;;;;5.80;2.28;;;;;;;6.77;58.23;100646.78;4863682;28;97214;-90
2022/04/11 05:09:18;;;;;;;7.10;2.47;;;;;;;6.80;58.15;100656.31;4880446;28;97144;-85
2022/04/11 05:11:47;;;;;;;6.97;2.53;;;;;;;6.75;58.07;100634.69;4879288;28;101942;-87
2022/04/11 05:14:12;;;;;;;7.10;2.97;;;;;;;6.87;57.84;100644.94;4878985;28;100357;-87
2022/04/11 05:16:38;;;;;;;10.40;2.90;;;;;;;6.91;57.95;100651.84;4878465;28;97273;-86
2022/04/11 05:19:07;;;;;;;7.63;3.40;;;;;;;6.92;57.75;100661.41;4879184;28;97150;-86
2022/04/11 05:21:33;;;;;;;8.77;3.27;;;;;;;6.95;57.89;100658.75;4862494;28;100619;-87
2022/04/11 05:23:59;;;;;;;9.43;3.17;;;;;;;6.96;57.65;100657.00;4874313;28;101619;-86
2022/04/11 05:26:25;;;;;;;10.70;3.00;;;;;;;6.99;57.68;100660.44;4870152;28;97242;-87
2022/04/11 05:28:51;;;;;;;9.75;3.33;;;;;;;7.10;57.81;100665.50;4871681;28;96869;-87
2022/04/11 05:31:18;;;;;;;8.83;2.83;;;;;;;7.02;57.07;100663.00;4880081;28;101372;-84
2022/04/11 05:33:45;;;;;;;9.90;2.43;;;;;;;7.07;57.26;100664.66;4877754;28;101292;-78
2022/04/11 05:36:14;;;;;;;5.78;2.30;;;;;;;7.12;57.40;100668.94;4878994;28;97320;-78
2022/04/11 05:38:40;;;;;;;6.13;2.40;;;;;;;7.12;57.67;100649.81;4859597;28;97392;-78
2022/04/11 05:41:06;;;;;;;6.03;2.70;;;;;;;7.02;57.33;100626.44;4876382;28;101571;-78
2022/04/11 05:43:41;;;;;;;6.50;2.35;;;;;;;7.24;57.19;100670.50;4854649;28;101285;-88
2022/04/11 05:46:08;;;;;;;7.27;2.60;;;;;;;7.26;57.33;100666.97;4877856;28;97315;-83
2022/04/11 05:48:35;;;;;;;7.47;2.58;;;;;;;7.31;57.39;100668.69;4877407;28;97425;-78
2022/04/11 05:51:02;;;;;;;9.00;2.40;;;;;;;7.34;57.34;100655.59;4878405;28;101168;-78
2022/04/11 05:53:28;;;;;;;8.23;3.20;;;;;;;7.33;56.60;100649.50;4856408;28;101584;-78
2022/04/11 05:55:54;;;;;;;6.50;2.27;;;;;;;7.38;56.47;100652.88;4858364;28;97173;-78
2022/04/11 05:58:20;;;;;;;5.57;2.57;;;;;;;7.57;56.40;100670.91;4861786;28;97035;-83
2022/04/11 06:00:46;;;;;;;5.55;2.13;;;;;;;7.53;55.98;100654.38;4860685;28;101370;-92
2022/04/11 06:03:12;;;;;;;5.67;2.50;;;;;;;7.72;56.40;100670.63;4889745;28;101197;-87
2022/04/11 06:05:39;;;;;;;5.20;2.03;;;;;;;7.74;56.34;100666.25;4874748;28;96822;-86
2022/04/11 06:08:05;;;;;;;7.82;2.50;;;;;;;7.76;55.79;100655.75;4875787;28;97477;-87
2022/04/11 06:10:31;;;;;;;8.70;2.45;;;;;;;7.97;55.71;100675.44;4875919;28;101640;-87
2022/04/11 06:12:57;;;;;;;8.40;2.42;;;;;;;8.04;55.14;100677.91;4889607;28;98440;-88
2022/04/11 06:15:23;;;;;;;7.35;2.05;;;;;;;8.18;55.34;100682.03;4870891;28;97048;-88
2022/04/11 06:17:51;;;;;;;7.85;2.20;;;;;;;8.26;54.90;100682.75;4873661;28;97211;-88
2022/04/11 06:20:17;;;;;;;9.52;2.40;;;;;;;8.31;54.82;100675.69;4856117;28;101294;-89
2022/04/11 06:22:43;;;;;;;5.80;2.45;;;;;;;8.43;54.89;100683.31;4873229;28;100969;-88
2022/04/11 06:25:09;;;;;;;8.05;2.65;;;;;;;8.67;54.28;100681.09;4862133;28;96698;-88
2022/04/11 06:27:36;;;;;;;6.32;2.70;;;;;;;8.88;54.07;100677.19;4894867;28;97893;-82
2022/04/11 06:30:03;;;;;;;8.98;2.95;;;;;;;9.23;53.20;100656.31;4878968;28;100625;-81
2022/04/11 06:32:30;;;;;;;6.80;2.60;;;;;;;10.19;52.21;100676.63;4891973;28;101433;-78
2022/04/11 06:34:57;;;;;;;5.13;2.70;;;;;;;10.63;51.16;100647.47;4861755;28;97209;-80
2022/04/11 06:37:26;;;;;;;7.28;2.33;;;;;;;10.90;50.35;100674.66;4862574;28;96949;-80
2022/04/11 06:39:54;;;;;;;8.75;2.63;;;;;;;11.34;49.68;100669.81;4874261;28;101684;-83
2022/04/11 06:42:20;;;;;;;6.85;2.75;;;;;;;12.21;48.17;100681.88;4869404;28;101297;-82
2022/04/11 06:44:49;;;;;;;6.15;2.17;;;;;;;11.92;48.69;100660.03;4893994;28;96810;-78
2022/04/11 06:47:18;;;;;;;9.68;2.58;;;;;;;11.92;48.30;100667.06;4875053;28;96953;-77
2022/04/11 06:49:44;;;;;;;9.43;2.55;;;;;;;12.12;47.31;100667.25;4857511;28;101702;-77
2022/04/11 06:52:09;;;;;;;10.45;2.05;;;;;;;12.76;46.15;100673.75;4882639;28;98283;-77
2022/04/11 06:54:35;;;;;;;10.43;3.30;;;;;;;12.94;45.70;100656.38;4894038;28;97716;-78
2022/04/11 06:57:01;;;;;;;9.88;2.97;;;;;;;13.02;44.94;100680.66;4882759;28;97323;-77
2022/04/11 06:59:26;;;;;;;11.18;2.90;;;;;;;12.79;44.86;100681.53;4878736;28;97573;-78
2022/04/11 07:01:52;;;;;;;6.63;2.65;;;;;;;12.34;45.04;100645.44;4862587;28;101333;-79
2022/04/11 07:04:18;;;;;;;6.60;2.75;;;;;;;13.14;44.61;100665.22;4890154;28;97083;-79
2022/04/11 07:06:44;;;;;;;9.82;2.28;;;;;;;14.10;42.81;100679.81;4871724;28;97028;-78
2022/04/11 07:09:10;;;;;;;8.15;2.78;;;;;;;14.68;41.90;100674.66;4879642;28;98504;-78
2022/04/11 07:11:36;;;;;;;7.55;2.20;;;;;;;15.34;41.28;100672.41;4879428;28;101234;-77
2022/04/11 07:14:02;;;;;;;5.85;2.20;;;;;;;16.09;40.31;100665.22;4880588;28;96909;-88
2022/04/11 07:16:28;;;;;;;4.97;2.22;;;;;;;16.65;38.65;100666.66;4863245;28;97024;-92
2022/04/11 07:18:53;;;;;;;9.25;2.03;;;;;;;17.15;37.84;100657.75;4880197;28;102054;-85
2022/04/11 07:21:19;;;;;;;7.13;2.17;;;;;;;17.71;36.08;100660.75;4879641;28;101316;-84
2022/04/11 07:23:45;;;;;;;6.85;2.00;;;;;;;18.20;35.51;100646.41;4880615;28;96808;-85
2022/04/11 07:26:11;;;;;;;8.35;1.95;;;;;;;18.74;34.28;100657.28;4881461;28;96986;-84
2022/04/11 07:28:36;;;;;;;5.57;1.80;;;;;;;19.19;33.58;100649.97;4879771;28;101615;-79
2022/04/11 07:31:02;;;;;;;4.47;2.20;;;;;;;19.64;32.89;100656.75;4895665;28;97915;-76
2022/04/11 07:33:28;;;;;;;6.45;1.92;;;;;;;19.29;33.00;100645.75;4879008;28;97433;-75
2022/04/11 07:35:54;;;;;;;7.82;2.40;;;;;;;19.67;32.07;100650.41;4880191;28;97263;-75
2022/04/11 07:38:19;;;;;;;5.15;1.73;;;;;;;20.21;31.66;100654.72;4861236;28;101476;-75
2022/04/11 07:40:45;;;;;;;5.03;1.92;;;;;;;20.60;30.77;100658.28;4877538;28;97500;-75
2022/04/11 07:43:11;;;;;;;4.63;1.80;;;;;;;21.01;30.20;100658.00;4887544;28;96882;-74
2022/04/11 07:45:36;;;;;;;4.95;2.13;;;;;;;21.50;29.31;100657.09;4885216;28;97719;-75
2022/04/11 07:48:02;;;;;;;6.45;2.00;;;;;;;21.73;29.17;100655.38;4877871;28;97525;-73
2022/04/11 07:50:28;;;;;;;6.03;1.90;;;;;;;22.20;28.65;100655.41;4886595;28;98275;-73
2022/04/11 07:52:53;;;;;;;7.88;2.15;;;;;;;22.41;27.93;100642.19;4886892;28;98537;-73
2022/04/11 07:55:19;;;;;;;3.75;1.80;;;;;;;22.87;27.36;100641.22;4890025;28;97311;-74
2022/04/11 07:57:45;;;;;;;5.60;2.08;;;;;;;23.00;27.19;100645.44;4871105;28;100892;-73
2022/04/11 08:00:11;;;;;;;6.22;2.55;;;;;;;23.35;26.57;100652.44;4872366;28;97847;-73
2022/04/11 08:02:39;;;;;;;6.78;2.33;;;;;;;22.87;27.17;100643.88;4892082;28;96696;-73
2022/04/11 08:05:06;;;;;;;6.30;2.03;;;;;;;21.35;28.39;100650.16;4890735;28;97130;-73
2022/04/11 08:07:35;;;;;;;5.85;2.42;;;;;;;21.81;28.05;100660.97;4888427;28;98040;-73
2022/04/11 08:10:05;;;;;;;6.57;2.13;;;;;;;22.33;27.84;100656.16;4890916;28;98489;-73
2022/04/11 08:12:31;;;;;;;6.68;2.08;;;;;;;23.05;27.07;100658.47;4894431;28;96910;-75
2022/04/11 08:14:57;;;;;;;10.20;2.67;;;;;;;23.78;26.67;100659.63;4896393;28;97229;-73
2022/04/11 08:17:23;;;;;;;4.70;1.65;;;;;;;24.53;25.34;100658.56;4874031;28;101352;-74
2022/04/11 08:19:49;;;;;;;5.32;1.90;;;;;;;23.89;25.88;100664.06;4863189;28;97646;-73
2022/04/11 08:22:15;;;;;;;5.53;1.80;;;;;;;24.80;25.03;100662.47;4869262;28;97469;-72
2022/04/11 08:24:40;;;;;;;2.92;1.33;;;;;;;24.26;24.88;100660.91;4875681;28;96949;-72
2022/04/11 08:27:06;;;;;;;5.65;1.80;;;;;;;22.53;25.98;100668.81;4864018;28;99765;-74
2022/04/11 08:29:32;;;;;;;4.70;2.10;;;;;;;21.27;27.22;100650.75;4859040;28;99887;-74
2022/04/11 08:31:57;;;;;;;6.43;2.63;;;;;;;20.30;28.14;100670.97;4876924;28;96949;-72
2022/04/11 08:34:23;;;;;;;4.70;1.60;;;;;;;19.41;29.34;100670.72;4877375;28;96729;-74
2022/04/11 08:36:48;;;;;;;5.72;1.73;;;;;;;18.84;30.24;100668.19;4874731;28;98020;-72
2022/04/11 08:39:15;;;;;;;6.28;2.22;;;;;;;18.48;30.55;100680.97;4856556;29;97862;-75
2022/04/11 08:41:41;;;;;;;3.30;1.55;;;;;;;17.97;31.55;100675.19;4869856;28;97295;-74
2022/04/11 08:44:07;;;;;;;3.70;1.95;;;;;;;17.68;31.73;100683.97;4860303;28;96841;-89
2022/04/11 08:46:34;;;;;;;5.75;2.10;;;;;;;17.40;32.77;100675.81;4858556;28;101438;-87
2022/04/11 08:49:04;;;;;;;5.05;1.95;;;;;;;17.34;32.32;100665.53;4863266;28;98027;-85
2022/04/11 08:51:31;;;;;;;3.08;1.33;;;;;;;17.09;32.73;100671.34;4845284;28;96693;-85
2022/04/11 08:54:01;;;;;;;7.43;1.98;;;;;;;17.07;32.35;100675.03;4842498;29;97139;-85
2022/04/11 08:56:30;;;;;;;3.55;1.80;;;;;;;16.85;32.65;100660.31;4844671;28;101343;-86
2022/04/11 08:58:56;;;;;;;6.63;1.60;;;;;;;16.66;33.09;100681.63;4845722;28;100950;-86
2022/04/11 09:01:22;;;;;;;4.22;1.60;;;;;;;16.41;33.39;100691.81;4861366;28;96938;-86
2022/04/11 09:03:49;;;;;;;9.00;2.25;;;;;;;15.98;33.39;100676.34;4877400;28;97751;-86
2022/04/11 09:06:15;;;;;;;10.60;2.90;;;;;;;15.88;33.96;100676.88;4860734;28;101160;-85
2022/04/11 09:08:46;;;;;;;8.68;2.33;;;;;;;15.80;34.38;100687.88;4860747;28;97952;-85
2022/04/11 09:11:12;;;;;;;4.47;1.88;;;;;;;15.49;33.86;100644.34;4860893;28;96666;-86
2022/04/11 09:13:51;;;;;;;5.07;1.90;;;;;;;15.27;34.12;100665.72;4861295;28;96822;-85
2022/04/11 09:16:18;;;;;;;6.28;1.92;;;;;;;15.34;34.79;100687.44;4843432;28;102551;-78
2022/04/11 09:18:51;;;;;;;4.15;1.75;;;;;;;15.16;34.85;100690.03;4874639;28;100659;-80
2022/04/11 09:21:18;;;;;;;9.27;2.53;;;;;;;14.88;35.39;100673.72;4865084;28;97272;-79
2022/04/11 09:23:44;;;;;;;6.55;1.90;;;;;;;14.97;35.03;100686.53;4880224;28;97376;-82
2022/04/11 09:26:17;;;;;;;8.75;1.75;;;;;;;14.63;34.75;100685.44;4879445;28;101255;-83
2022/04/11 09:28:43;;;;;;;6.28;1.58;;;;;;;15.57;33.61;100673.09;4892741;28;97950;-82
2022/04/11 09:31:09;;;;;;;3.33;1.60;;;;;;;15.48;33.72;100685.00;4876974;28;97137;-81
2022/04/11 09:33:39;;;;;;;5.03;1.42;;;;;;;15.15;33.85;100677.75;4865473;28;97187;-82
2022/04/11 09:36:04;;;;;;;5.97;1.75;;;;;;;15.02;34.30;100681.03;4880669;28;98296;-88
2022/04/11 09:38:36;;;;;;;4.90;1.40;;;;;;;14.78;34.23;100680.38;4879137;28;98445;-88
2022/04/11 09:41:02;;;;;;;3.80;1.70;;;;;;;14.71;34.08;100677.16;4883336;28;96687;-88
2022/04/11 09:43:29;;;;;;;3.30;1.17;;;;;;;14.83;34.08;100662.50;4867420;28;96979;-87
2022/04/11 09:45:55;;;;;;;4.38;1.63;;;;;;;15.88;33.58;100671.59;4866997;28;101428;-89
2022/04/11 09:48:32;;;;;;;7.38;2.58;;;;;;;16.20;33.10;100678.75;4898276;28;98425;-88
2022/04/11 09:50:59;;;;;;;5.53;1.60;;;;;;;16.06;33.10;100671.53;4867444;28;97262;-89
2022/04/11 09:53:30;;;;;;;5.47;1.55;;;;;;;15.69;33.29;100656.63;4881196;28;97231;-86
2022/04/11 09:55:56;;;;;;;5.35;1.92;;;;;;;15.70;33.10;100668.94;4879179;28;101771;-87
2022/04/11 09:58:23;;;;;;;3.13;1.50;;;;;;;15.48;33.55;100670.91;4892349;28;100314;-87
2022/04/11 10:00:50;;;;;;;5.15;2.38;;;;;;;15.32;33.78;100679.56;4866310;28;96753;-87
2022/04/11 10:03:16;;;;;;;4.75;1.70;;;;;;;15.10;34.04;100661.25;4902960;28;96714;-88
2022/04/11 10:05:42;;;;;;;6.43;2.45;;;;;;;15.16;34.14;100666.22;4857519;28;100548;-88
2022/04/11 10:08:09;;;;;;;5.30;2.25;;;;;;;15.10;34.27;100650.66;4917230;28;97990;-86
2022/04/11 10:10:38;;;;;;;7.35;1.80;;;;;;;15.75;34.15;100664.28;4883748;28;96868;-76
2022/04/11 10:13:06;;;;;;;5.57;1.63;;;;;;;15.91;33.63;100663.50;4884676;28;96838;-76
2022/04/11 10:15:32;;;;;;;7.57;2.63;;;;;;;15.62;33.18;100640.19;4882256;28;98617;-76
2022/04/11 10:17:58;;;;;;;5.93;1.88;;;;;;;15.41;33.65;100659.75;4877846;28;101127;-76
2022/04/11 10:20:31;;;;;;;8.50;2.45;;;;;;;15.71;33.63;100649.50;4845809;28;96791;-76
2022/04/11 10:23:11;;;;;;;8.30;1.80;;;;;;;16.30;33.49;100645.53;4860417;28;96990;-76
2022/04/11 10:25:44;;;;;;;4.15;1.90;;;;;;;16.88;32.85;100648.69;4836139;28;101848;-76
2022/04/11 10:28:23;;;;;;;7.68;1.88;;;;;;;16.85;32.42;100646.22;4858789;28;97771;-76
2022/04/11 10:31:21;;;;;;;4.32;1.65;;;;;;;16.22;32.35;100638.94;4859261;28;96879;-76
2022/04/11 10:33:49;;;;;;;5.30;1.70;;;;;;;15.96;32.34;100646.44;4828596;28;97393;-76
2022/04/11 10:36:25;;;;;;;4.05;1.40;;;;;;;15.63;32.61;100643.69;4870301;28;97492;-76
2022/04/11 10:39:12;;;;;;;5.75;1.80;;;;;;;15.19;32.73;100646.72;4861468;28;98143;-82
2022/04/11 10:41:56;;;;;;;5.38;1.70;;;;;;;15.01;33.27;100661.69;4870965;28;97393;-82
2022/04/11 10:44:42;;;;;;;4.85;1.70;;;;;;;14.84;33.82;100661.59;4862614;28;97040;-82
2022/04/11 10:47:08;;;;;;;6.85;1.90;;;;;;;14.60;35.47;100667.09;4846296;28;101805;-82
2022/04/11 10:49:49;;;;;;;7.07;1.20;;;;;;;14.32;36.60;100669.22;4861831;28;101313;-90
2022/04/11 10:52:31;;;;;;;4.85;1.33;;;;;;;14.11;37.12;100671.84;4877927;28;98257;-82
2022/04/11 10:55:11;;;;;;;3.25;1.50;;;;;;;14.10;37.08;100661.34;4874301;28;97367;-83
2022/04/11 10:57:41;;;;;;;2.85;1.38;;;;;;;14.08;36.53;100664.06;4865296;28;97531;-85
2022/04/11 11:00:08;;;;;;;4.95;1.70;;;;;;;14.11;36.56;100668.34;4851749;29;101833;-84
2022/04/11 11:05:41;;;;;;;4.22;1.45;;;;;;;13.94;35.93;100640.06;4868705;28;97137;-84
2022/04/11 11:08:07;;;;;;;6.50;1.40;;;;;;;14.01;35.26;100637.06;4861272;28;101618;-84
2022/04/11 11:10:56;;;;;;;3.80;1.10;;;;;;;14.14;34.93;100652.38;4878049;28;97436;-84
2022/04/11 11:13:34;;;;;;;3.60;1.23;;;;;;;14.06;34.66;100650.06;4846326;28;97185;-84
2022/04/11 11:16:06;;;;;;;3.50;1.30;;;;;;;13.96;35.44;100643.47;4858631;28;96922;-85
2022/04/11 11:18:47;;;;;;;5.30;1.77;;;;;;;14.00;34.90;100661.75;4863039;28;101426;-84
2022/04/11 11:21:24;;;;;;;2.60;1.42;;;;;;;14.02;35.00;100653.75;4877313;28;99840;-94
2022/04/11 11:24:11;;;;;;;6.47;1.58;;;;;;;14.07;34.92;100658.84;4877539;28;97111;-94
2022/04/11 11:26:53;;;;;;;5.82;1.48;;;;;;;14.01;35.74;100658.19;4865660;28;96938;-94
2022/04/11 11:29:29;;;;;;;4.32;1.30;;;;;;;13.87;35.65;100662.31;4862163;28;100489;-95
2022/04/11 11:31:59;;;;;;;9.88;2.38;;;;;;;13.82;35.75;100665.19;4870675;28;99856;-92
2022/04/11 11:34:28;;;;;;;5.05;1.75;;;;;;;13.71;35.67;100657.69;4863104;28;97052;-84